Cedar Point, KS (66843)

11:58 AM CDT on July 30, 2014 (GMT -0500)
Marion County Lake (KKSMARIO2) Elev 1362 ft | 38.32 °N, 96.99 °W | Change Station

Current weather conditions updated 7 seconds ago

Light Rain
Light Rain Mist
68.7 °F
Feels Like 68.7 °F
N
2.2
Wind Variable Wind from SW
Gusts 7.6 mph

Today is forecast to be Much Cooler than yesterday. A few thunderstorms possible.

Today
High -- | Low -- °F
--% Chance of Precip.
Yesterday
High -- | Low -- °F
Precip. -- in
6:27 AM 8:38 PM
Waxing Crescent, 12% visible
Pressure 30.14 in
Visibility 6.0 miles
Clouds Few 3500 ft
Mostly Cloudy 4500 ft
Overcast 5500 ft
Dew Point 62 °F
Humidity 78%
Rainfall 0.00 in
Snow Depth Not available.
UV 3 out of 12
Pollen .80 out of 12
Air Quality Not available.
Flu Activity Not available.
METAR KEMP 301653Z AUTO 03007KT 6SM -RA BR FEW035 BKN045 OVC055 18/17 A3015 RMK AO2 SLP207 P0001 T01830172

More Conditions Fewer Conditions

Pressure 30.14 in
Visibility 6.0 miles
Clouds Few 3500 ft
Mostly Cloudy 4500 ft
Overcast 5500 ft
Dew Point 62 °F
Humidity 78%
Rainfall 0.00 in
Snow Depth Not available.
UV 3 out of 12
Pollen .80 out of 12
Air Quality Not available.
Flu Activity Not available.
METAR KEMP 301653Z AUTO 03007KT 6SM -RA BR FEW035 BKN045 OVC055 18/17 A3015 RMK AO2 SLP207 P0001 T01830172

More Conditions Fewer Conditions

10-Day Weather Forecast

Almanac

Astronomy

Jul. 30, 2014 Rise Set
Actual Time 6:27 AM CDT 8:38 PM CDT
Civil Twilight 5:58 AM CDT 9:08 PM CDT
Nautical Twilight 5:21 AM CDT 9:44 PM CDT
Astronomical Twilight 4:42 AM CDT 10:23 PM CDT
Moon 9:56 AM CDT 10:25 PM CDT
Length of Visible Light 15h 09m
Length of Day
14h 10m
Tomorrow will be 1m 48s shorter.
Waxing Crescent, 12% of the Moon is Illuminated
Today
Waxing Crescent
Aug 3
First Quarter
Aug 10
Full
Aug 17
Last Quarter
Aug 25
New

Today's Extremes

State Highs State Lows

Community

WunderPhotos

Upload Photos

1,739,133 photos uploaded!

WunderBlogs® & News

Nearby

Snow Depth

Station Depth Elevation
No new snow has been reported.

Earthquake Activity

City Distance Mag. Time & Date
Helena, Oklahoma 140 miles 3.3 11:56 PM CDT
2014-07-24
Minimum magnitude displayed is 2.5.

Coastal Water Temperatures

Place Temperature
No Stations Reporting

Nearby Weather Stations

Station Location Temp. Dew Point Humidity Wind Precip. Elev Updated Type
Marion County Lake, Marion, KS 68.7 °F 62 °F 78% SW  at  2.2 mph 0.01 in / hr 1362 ft 11:58 AM CDT Rapid Fire
RAWS TALLGRASS PRAIRIE KS, Strong City, KS 67 °F 62 °F 83% North  at  6 mph 0.00 in / hr 1230 ft 10:30 AM CDT MADIS

Show More Stations Show Fewer Stations